<?xml version="1.0" encoding="UTF-8" standalone="no" ?>
<gpx xmlns="http://www.topografix.com/GPX/1/1" xmlns:xsi="http://www.w3.org/2001/XMLSchema-instance" xsi:schemaLocation="http://www.topografix.com/GPX/1/1 http://www.topografix.com/GPX/1/1/gpx.xsd" version="1.1" creator="VisuGPX - https://www.visugpx.com">
  <metadata>
    <name>Auvers-Nesles-Auvers (25km)</name>
  </metadata>
  <trk>
    <name><![CDATA[5833893-Auvers-Nesles-Auvers (25km)]]></name>
    <trkseg>
      <trkpt lat="49.07037" lon="2.17566">
        <ele>28</ele>
        <time>2019-08-12T11:00:15Z</time>
      </trkpt>
      <trkpt lat="49.07057" lon="2.17639">
        <ele>28</ele>
        <time>2019-08-12T11:01:24Z</time>
      </trkpt>
      <trkpt lat="49.0707" lon="2.17686">
        <ele>28</ele>
        <time>2019-08-12T11:02:09Z</time>
      </trkpt>
      <trkpt lat="49.07063" lon="2.17729">
        <ele>28</ele>
        <time>2019-08-12T11:02:48Z</time>
      </trkpt>
      <trkpt lat="49.07056" lon="2.17781">
        <ele>26</ele>
        <time>2019-08-12T11:03:34Z</time>
      </trkpt>
      <trkpt lat="49.07027" lon="2.17824">
        <ele>25</ele>
        <time>2019-08-12T11:04:28Z</time>
      </trkpt>
      <trkpt lat="49.07036" lon="2.17871">
        <ele>25</ele>
        <time>2019-08-12T11:05:11Z</time>
      </trkpt>
      <trkpt lat="49.07064" lon="2.1792">
        <ele>25</ele>
        <time>2019-08-12T11:06:08Z</time>
      </trkpt>
      <trkpt lat="49.07079" lon="2.17969">
        <ele>24</ele>
        <time>2019-08-12T11:06:55Z</time>
      </trkpt>
      <trkpt lat="49.07093" lon="2.18027">
        <ele>26</ele>
        <time>2019-08-12T11:07:49Z</time>
      </trkpt>
      <trkpt lat="49.07104" lon="2.18105">
        <ele>26</ele>
        <time>2019-08-12T11:08:59Z</time>
      </trkpt>
      <trkpt lat="49.07121" lon="2.18197">
        <ele>26</ele>
        <time>2019-08-12T11:10:22Z</time>
      </trkpt>
      <trkpt lat="49.07138" lon="2.18289">
        <ele>25</ele>
        <time>2019-08-12T11:11:46Z</time>
      </trkpt>
      <trkpt lat="49.07154" lon="2.18401">
        <ele>25</ele>
        <time>2019-08-12T11:13:26Z</time>
      </trkpt>
      <trkpt lat="49.07174" lon="2.18542">
        <ele>25</ele>
        <time>2019-08-12T11:15:32Z</time>
      </trkpt>
      <trkpt lat="49.07197" lon="2.18626">
        <ele>27</ele>
        <time>2019-08-12T11:16:52Z</time>
      </trkpt>
      <trkpt lat="49.07218" lon="2.1871">
        <ele>26</ele>
        <time>2019-08-12T11:18:10Z</time>
      </trkpt>
      <trkpt lat="49.0723" lon="2.18798">
        <ele>25</ele>
        <time>2019-08-12T11:19:29Z</time>
      </trkpt>
      <trkpt lat="49.07251" lon="2.18866">
        <ele>25</ele>
        <time>2019-08-12T11:20:35Z</time>
      </trkpt>
      <trkpt lat="49.07267" lon="2.18948">
        <ele>25</ele>
        <time>2019-08-12T11:21:49Z</time>
      </trkpt>
      <trkpt lat="49.07292" lon="2.19025">
        <ele>25</ele>
        <time>2019-08-12T11:23:04Z</time>
      </trkpt>
      <trkpt lat="49.07323" lon="2.19085">
        <ele>24</ele>
        <time>2019-08-12T11:24:11Z</time>
      </trkpt>
      <trkpt lat="49.07355" lon="2.1916">
        <ele>24</ele>
        <time>2019-08-12T11:25:30Z</time>
      </trkpt>
      <trkpt lat="49.07389" lon="2.19246">
        <ele>24</ele>
        <time>2019-08-12T11:26:57Z</time>
      </trkpt>
      <trkpt lat="49.0743" lon="2.19328">
        <ele>25</ele>
        <time>2019-08-12T11:28:28Z</time>
      </trkpt>
      <trkpt lat="49.07476" lon="2.19409">
        <ele>24</ele>
        <time>2019-08-12T11:30:01Z</time>
      </trkpt>
      <trkpt lat="49.07524" lon="2.19491">
        <ele>24</ele>
        <time>2019-08-12T11:31:37Z</time>
      </trkpt>
      <trkpt lat="49.07571" lon="2.19568">
        <ele>23</ele>
        <time>2019-08-12T11:33:09Z</time>
      </trkpt>
      <trkpt lat="49.07621" lon="2.19635">
        <ele>22</ele>
        <time>2019-08-12T11:34:38Z</time>
      </trkpt>
      <trkpt lat="49.07672" lon="2.19701">
        <ele>23</ele>
        <time>2019-08-12T11:36:07Z</time>
      </trkpt>
      <trkpt lat="49.07742" lon="2.19763">
        <ele>24</ele>
        <time>2019-08-12T11:37:55Z</time>
      </trkpt>
      <trkpt lat="49.07808" lon="2.19838">
        <ele>24</ele>
        <time>2019-08-12T11:39:45Z</time>
      </trkpt>
      <trkpt lat="49.07954" lon="2.1998">
        <ele>25</ele>
        <time>2019-08-12T11:43:36Z</time>
      </trkpt>
      <trkpt lat="49.08041" lon="2.2004">
        <ele>25</ele>
        <time>2019-08-12T11:45:44Z</time>
      </trkpt>
      <trkpt lat="49.08148" lon="2.20096">
        <ele>23</ele>
        <time>2019-08-12T11:48:15Z</time>
      </trkpt>
      <trkpt lat="49.08269" lon="2.20177">
        <ele>25</ele>
        <time>2019-08-12T11:51:11Z</time>
      </trkpt>
      <trkpt lat="49.08404" lon="2.20311">
        <ele>24</ele>
        <time>2019-08-12T11:54:46Z</time>
      </trkpt>
      <trkpt lat="49.085" lon="2.20414">
        <ele>25</ele>
        <time>2019-08-12T11:57:22Z</time>
      </trkpt>
      <trkpt lat="49.08604" lon="2.20512">
        <ele>26</ele>
        <time>2019-08-12T12:00:05Z</time>
      </trkpt>
      <trkpt lat="49.08651" lon="2.20559">
        <ele>26</ele>
        <time>2019-08-12T12:01:20Z</time>
      </trkpt>
      <trkpt lat="49.08731" lon="2.20609">
        <ele>27</ele>
        <time>2019-08-12T12:03:16Z</time>
      </trkpt>
      <trkpt lat="49.08762" lon="2.20613">
        <ele>27</ele>
        <time>2019-08-12T12:03:57Z</time>
      </trkpt>
      <trkpt lat="49.0879" lon="2.2062">
        <ele>27</ele>
        <time>2019-08-12T12:04:35Z</time>
      </trkpt>
      <trkpt lat="49.08832" lon="2.20639">
        <ele>27</ele>
        <time>2019-08-12T12:05:34Z</time>
      </trkpt>
      <trkpt lat="49.08887" lon="2.20663">
        <ele>29</ele>
        <time>2019-08-12T12:06:50Z</time>
      </trkpt>
      <trkpt lat="49.08925" lon="2.20679">
        <ele>30</ele>
        <time>2019-08-12T12:07:42Z</time>
      </trkpt>
      <trkpt lat="49.08968" lon="2.20696">
        <ele>30</ele>
        <time>2019-08-12T12:08:42Z</time>
      </trkpt>
      <trkpt lat="49.09017" lon="2.20718">
        <ele>30</ele>
        <time>2019-08-12T12:09:50Z</time>
      </trkpt>
      <trkpt lat="49.09068" lon="2.2075">
        <ele>30</ele>
        <time>2019-08-12T12:11:03Z</time>
      </trkpt>
      <trkpt lat="49.09097" lon="2.20771">
        <ele>28</ele>
        <time>2019-08-12T12:11:46Z</time>
      </trkpt>
      <trkpt lat="49.09116" lon="2.20771">
        <ele>28</ele>
        <time>2019-08-12T12:12:12Z</time>
      </trkpt>
      <trkpt lat="49.09118" lon="2.20773">
        <ele>28</ele>
        <time>2019-08-12T12:12:15Z</time>
      </trkpt>
      <trkpt lat="49.09127" lon="2.20707">
        <ele>27</ele>
        <time>2019-08-12T12:13:14Z</time>
      </trkpt>
      <trkpt lat="49.09139" lon="2.20652">
        <ele>26</ele>
        <time>2019-08-12T12:14:04Z</time>
      </trkpt>
      <trkpt lat="49.09154" lon="2.20559">
        <ele>26</ele>
        <time>2019-08-12T12:15:28Z</time>
      </trkpt>
      <trkpt lat="49.09173" lon="2.20447">
        <ele>25</ele>
        <time>2019-08-12T12:17:09Z</time>
      </trkpt>
      <trkpt lat="49.09194" lon="2.20328">
        <ele>25</ele>
        <time>2019-08-12T12:18:57Z</time>
      </trkpt>
      <trkpt lat="49.09201" lon="2.20286">
        <ele>25</ele>
        <time>2019-08-12T12:19:35Z</time>
      </trkpt>
      <trkpt lat="49.09232" lon="2.20255">
        <ele>25</ele>
        <time>2019-08-12T12:20:24Z</time>
      </trkpt>
      <trkpt lat="49.09244" lon="2.20212">
        <ele>26</ele>
        <time>2019-08-12T12:21:05Z</time>
      </trkpt>
      <trkpt lat="49.09255" lon="2.20169">
        <ele>27</ele>
        <time>2019-08-12T12:21:45Z</time>
      </trkpt>
      <trkpt lat="49.09298" lon="2.20043">
        <ele>25</ele>
        <time>2019-08-12T12:23:50Z</time>
      </trkpt>
      <trkpt lat="49.09319" lon="2.19981">
        <ele>25</ele>
        <time>2019-08-12T12:24:51Z</time>
      </trkpt>
      <trkpt lat="49.09345" lon="2.19906">
        <ele>28</ele>
        <time>2019-08-12T12:26:05Z</time>
      </trkpt>
      <trkpt lat="49.09366" lon="2.19838">
        <ele>32</ele>
        <time>2019-08-12T12:27:10Z</time>
      </trkpt>
      <trkpt lat="49.09369" lon="2.19825">
        <ele>34</ele>
        <time>2019-08-12T12:27:22Z</time>
      </trkpt>
      <trkpt lat="49.0939" lon="2.19818">
        <ele>36</ele>
        <time>2019-08-12T12:27:51Z</time>
      </trkpt>
      <trkpt lat="49.09395" lon="2.19792">
        <ele>37</ele>
        <time>2019-08-12T12:28:15Z</time>
      </trkpt>
      <trkpt lat="49.09402" lon="2.19752">
        <ele>40</ele>
        <time>2019-08-12T12:28:51Z</time>
      </trkpt>
      <trkpt lat="49.09417" lon="2.19701">
        <ele>48</ele>
        <time>2019-08-12T12:29:40Z</time>
      </trkpt>
      <trkpt lat="49.09406" lon="2.19635">
        <ele>34</ele>
        <time>2019-08-12T12:30:39Z</time>
      </trkpt>
      <trkpt lat="49.09382" lon="2.19583">
        <ele>31</ele>
        <time>2019-08-12T12:31:35Z</time>
      </trkpt>
      <trkpt lat="49.09343" lon="2.19519">
        <ele>30</ele>
        <time>2019-08-12T12:32:51Z</time>
      </trkpt>
      <trkpt lat="49.09379" lon="2.19465">
        <ele>30</ele>
        <time>2019-08-12T12:33:59Z</time>
      </trkpt>
      <trkpt lat="49.09395" lon="2.19418">
        <ele>30</ele>
        <time>2019-08-12T12:34:45Z</time>
      </trkpt>
      <trkpt lat="49.0941" lon="2.19371">
        <ele>31</ele>
        <time>2019-08-12T12:35:31Z</time>
      </trkpt>
      <trkpt lat="49.09486" lon="2.19356">
        <ele>30</ele>
        <time>2019-08-12T12:37:13Z</time>
      </trkpt>
      <trkpt lat="49.09528" lon="2.19401">
        <ele>32</ele>
        <time>2019-08-12T12:38:21Z</time>
      </trkpt>
      <trkpt lat="49.09559" lon="2.19448">
        <ele>38</ele>
        <time>2019-08-12T12:39:20Z</time>
      </trkpt>
      <trkpt lat="49.09593" lon="2.19426">
        <ele>43</ele>
        <time>2019-08-12T12:40:09Z</time>
      </trkpt>
      <trkpt lat="49.09635" lon="2.19403">
        <ele>43</ele>
        <time>2019-08-12T12:41:09Z</time>
      </trkpt>
      <trkpt lat="49.09678" lon="2.19356">
        <ele>50</ele>
        <time>2019-08-12T12:42:19Z</time>
      </trkpt>
      <trkpt lat="49.09732" lon="2.19287">
        <ele>45</ele>
        <time>2019-08-12T12:43:53Z</time>
      </trkpt>
      <trkpt lat="49.09787" lon="2.19197">
        <ele>44</ele>
        <time>2019-08-12T12:45:41Z</time>
      </trkpt>
      <trkpt lat="49.0985" lon="2.19092">
        <ele>44</ele>
        <time>2019-08-12T12:47:45Z</time>
      </trkpt>
      <trkpt lat="49.09875" lon="2.1904">
        <ele>42</ele>
        <time>2019-08-12T12:48:41Z</time>
      </trkpt>
      <trkpt lat="49.09919" lon="2.18982">
        <ele>48</ele>
        <time>2019-08-12T12:49:59Z</time>
      </trkpt>
      <trkpt lat="49.09947" lon="2.18884">
        <ele>45</ele>
        <time>2019-08-12T12:51:32Z</time>
      </trkpt>
      <trkpt lat="49.09967" lon="2.18766">
        <ele>43</ele>
        <time>2019-08-12T12:53:19Z</time>
      </trkpt>
      <trkpt lat="49.09988" lon="2.1869">
        <ele>40</ele>
        <time>2019-08-12T12:54:31Z</time>
      </trkpt>
      <trkpt lat="49.1002" lon="2.18622">
        <ele>45</ele>
        <time>2019-08-12T12:55:44Z</time>
      </trkpt>
      <trkpt lat="49.10069" lon="2.18549">
        <ele>43</ele>
        <time>2019-08-12T12:57:16Z</time>
      </trkpt>
      <trkpt lat="49.10138" lon="2.18497">
        <ele>43</ele>
        <time>2019-08-12T12:58:58Z</time>
      </trkpt>
      <trkpt lat="49.10222" lon="2.1853">
        <ele>46</ele>
        <time>2019-08-12T13:00:54Z</time>
      </trkpt>
      <trkpt lat="49.10298" lon="2.18579">
        <ele>39</ele>
        <time>2019-08-12T13:02:44Z</time>
      </trkpt>
      <trkpt lat="49.10278" lon="2.18652">
        <ele>54</ele>
        <time>2019-08-12T13:03:53Z</time>
      </trkpt>
      <trkpt lat="49.10302" lon="2.18663">
        <ele>52</ele>
        <time>2019-08-12T13:04:27Z</time>
      </trkpt>
      <trkpt lat="49.10332" lon="2.18708">
        <ele>62</ele>
        <time>2019-08-12T13:05:23Z</time>
      </trkpt>
      <trkpt lat="49.10358" lon="2.18766">
        <ele>68</ele>
        <time>2019-08-12T13:06:24Z</time>
      </trkpt>
      <trkpt lat="49.10384" lon="2.18808">
        <ele>70</ele>
        <time>2019-08-12T13:07:15Z</time>
      </trkpt>
      <trkpt lat="49.10423" lon="2.18871">
        <ele>78</ele>
        <time>2019-08-12T13:08:30Z</time>
      </trkpt>
      <trkpt lat="49.10455" lon="2.18907">
        <ele>80</ele>
        <time>2019-08-12T13:09:23Z</time>
      </trkpt>
      <trkpt lat="49.10498" lon="2.18933">
        <ele>85</ele>
        <time>2019-08-12T13:10:25Z</time>
      </trkpt>
      <trkpt lat="49.10545" lon="2.18967">
        <ele>86</ele>
        <time>2019-08-12T13:11:35Z</time>
      </trkpt>
      <trkpt lat="49.10618" lon="2.19004">
        <ele>86</ele>
        <time>2019-08-12T13:13:17Z</time>
      </trkpt>
      <trkpt lat="49.10691" lon="2.19057">
        <ele>83</ele>
        <time>2019-08-12T13:15:05Z</time>
      </trkpt>
      <trkpt lat="49.10767" lon="2.1912">
        <ele>89</ele>
        <time>2019-08-12T13:17:00Z</time>
      </trkpt>
      <trkpt lat="49.10866" lon="2.19141">
        <ele>87</ele>
        <time>2019-08-12T13:19:14Z</time>
      </trkpt>
      <trkpt lat="49.10912" lon="2.19145">
        <ele>86</ele>
        <time>2019-08-12T13:20:15Z</time>
      </trkpt>
      <trkpt lat="49.10954" lon="2.19173">
        <ele>87</ele>
        <time>2019-08-12T13:21:16Z</time>
      </trkpt>
      <trkpt lat="49.10989" lon="2.19208">
        <ele>88</ele>
        <time>2019-08-12T13:22:12Z</time>
      </trkpt>
      <trkpt lat="49.11037" lon="2.19238">
        <ele>89</ele>
        <time>2019-08-12T13:23:21Z</time>
      </trkpt>
      <trkpt lat="49.11095" lon="2.19259">
        <ele>97</ele>
        <time>2019-08-12T13:24:41Z</time>
      </trkpt>
      <trkpt lat="49.11155" lon="2.19293">
        <ele>103</ele>
        <time>2019-08-12T13:26:06Z</time>
      </trkpt>
      <trkpt lat="49.11217" lon="2.19321">
        <ele>108</ele>
        <time>2019-08-12T13:27:33Z</time>
      </trkpt>
      <trkpt lat="49.11294" lon="2.19366">
        <ele>108</ele>
        <time>2019-08-12T13:29:23Z</time>
      </trkpt>
      <trkpt lat="49.1137" lon="2.19429">
        <ele>108</ele>
        <time>2019-08-12T13:31:18Z</time>
      </trkpt>
      <trkpt lat="49.11443" lon="2.19493">
        <ele>109</ele>
        <time>2019-08-12T13:33:10Z</time>
      </trkpt>
      <trkpt lat="49.11523" lon="2.19583">
        <ele>108</ele>
        <time>2019-08-12T13:35:23Z</time>
      </trkpt>
      <trkpt lat="49.11589" lon="2.19669">
        <ele>107</ele>
        <time>2019-08-12T13:37:19Z</time>
      </trkpt>
      <trkpt lat="49.11659" lon="2.19755">
        <ele>106</ele>
        <time>2019-08-12T13:39:19Z</time>
      </trkpt>
      <trkpt lat="49.11745" lon="2.19862">
        <ele>104</ele>
        <time>2019-08-12T13:41:47Z</time>
      </trkpt>
      <trkpt lat="49.11795" lon="2.19931">
        <ele>102</ele>
        <time>2019-08-12T13:43:17Z</time>
      </trkpt>
      <trkpt lat="49.11832" lon="2.19847">
        <ele>103</ele>
        <time>2019-08-12T13:44:45Z</time>
      </trkpt>
      <trkpt lat="49.11871" lon="2.19763">
        <ele>99</ele>
        <time>2019-08-12T13:46:15Z</time>
      </trkpt>
      <trkpt lat="49.11932" lon="2.19688">
        <ele>93</ele>
        <time>2019-08-12T13:47:59Z</time>
      </trkpt>
      <trkpt lat="49.11992" lon="2.19613">
        <ele>90</ele>
        <time>2019-08-12T13:49:43Z</time>
      </trkpt>
      <trkpt lat="49.12033" lon="2.19497">
        <ele>87</ele>
        <time>2019-08-12T13:51:38Z</time>
      </trkpt>
      <trkpt lat="49.12085" lon="2.19364">
        <ele>88</ele>
        <time>2019-08-12T13:53:53Z</time>
      </trkpt>
      <trkpt lat="49.1213" lon="2.19255">
        <ele>86</ele>
        <time>2019-08-12T13:55:46Z</time>
      </trkpt>
      <trkpt lat="49.12169" lon="2.1912">
        <ele>86</ele>
        <time>2019-08-12T13:57:55Z</time>
      </trkpt>
      <trkpt lat="49.12205" lon="2.18982">
        <ele>84</ele>
        <time>2019-08-12T14:00:04Z</time>
      </trkpt>
      <trkpt lat="49.12255" lon="2.18911">
        <ele>84</ele>
        <time>2019-08-12T14:01:36Z</time>
      </trkpt>
      <trkpt lat="49.12283" lon="2.18817">
        <ele>82</ele>
        <time>2019-08-12T14:03:06Z</time>
      </trkpt>
      <trkpt lat="49.12316" lon="2.18712">
        <ele>80</ele>
        <time>2019-08-12T14:04:47Z</time>
      </trkpt>
      <trkpt lat="49.12354" lon="2.18628">
        <ele>76</ele>
        <time>2019-08-12T14:06:17Z</time>
      </trkpt>
      <trkpt lat="49.12403" lon="2.18579">
        <ele>71</ele>
        <time>2019-08-12T14:07:35Z</time>
      </trkpt>
      <trkpt lat="49.1244" lon="2.18553">
        <ele>68</ele>
        <time>2019-08-12T14:08:29Z</time>
      </trkpt>
      <trkpt lat="49.12465" lon="2.18504">
        <ele>65</ele>
        <time>2019-08-12T14:09:23Z</time>
      </trkpt>
      <trkpt lat="49.12507" lon="2.18476">
        <ele>56</ele>
        <time>2019-08-12T14:10:25Z</time>
      </trkpt>
      <trkpt lat="49.12566" lon="2.18463">
        <ele>53</ele>
        <time>2019-08-12T14:11:44Z</time>
      </trkpt>
      <trkpt lat="49.12593" lon="2.18487">
        <ele>53</ele>
        <time>2019-08-12T14:12:26Z</time>
      </trkpt>
      <trkpt lat="49.1262" lon="2.18512">
        <ele>57</ele>
        <time>2019-08-12T14:13:08Z</time>
      </trkpt>
      <trkpt lat="49.12655" lon="2.18536">
        <ele>56</ele>
        <time>2019-08-12T14:13:59Z</time>
      </trkpt>
      <trkpt lat="49.12696" lon="2.18675">
        <ele>60</ele>
        <time>2019-08-12T14:16:12Z</time>
      </trkpt>
      <trkpt lat="49.12745" lon="2.18716">
        <ele>57</ele>
        <time>2019-08-12T14:17:27Z</time>
      </trkpt>
      <trkpt lat="49.12804" lon="2.18753">
        <ele>56</ele>
        <time>2019-08-12T14:18:52Z</time>
      </trkpt>
      <trkpt lat="49.12864" lon="2.18808">
        <ele>55</ele>
        <time>2019-08-12T14:20:25Z</time>
      </trkpt>
      <trkpt lat="49.12901" lon="2.18884">
        <ele>59</ele>
        <time>2019-08-12T14:21:48Z</time>
      </trkpt>
      <trkpt lat="49.12954" lon="2.18969">
        <ele>54</ele>
        <time>2019-08-12T14:23:30Z</time>
      </trkpt>
      <trkpt lat="49.12964" lon="2.19017">
        <ele>53</ele>
        <time>2019-08-12T14:24:14Z</time>
      </trkpt>
      <trkpt lat="49.13" lon="2.19079">
        <ele>50</ele>
        <time>2019-08-12T14:25:27Z</time>
      </trkpt>
      <trkpt lat="49.12948" lon="2.19199">
        <ele>56</ele>
        <time>2019-08-12T14:27:33Z</time>
      </trkpt>
      <trkpt lat="49.12952" lon="2.19328">
        <ele>70</ele>
        <time>2019-08-12T14:29:25Z</time>
      </trkpt>
      <trkpt lat="49.13009" lon="2.19405">
        <ele>70</ele>
        <time>2019-08-12T14:31:07Z</time>
      </trkpt>
      <trkpt lat="49.13065" lon="2.19499">
        <ele>69</ele>
        <time>2019-08-12T14:32:58Z</time>
      </trkpt>
      <trkpt lat="49.13104" lon="2.1962">
        <ele>80</ele>
        <time>2019-08-12T14:34:56Z</time>
      </trkpt>
      <trkpt lat="49.13169" lon="2.1974">
        <ele>83</ele>
        <time>2019-08-12T14:37:12Z</time>
      </trkpt>
      <trkpt lat="49.13216" lon="2.19843">
        <ele>92</ele>
        <time>2019-08-12T14:39:01Z</time>
      </trkpt>
      <trkpt lat="49.13284" lon="2.1989">
        <ele>93</ele>
        <time>2019-08-12T14:40:41Z</time>
      </trkpt>
      <trkpt lat="49.13354" lon="2.1983">
        <ele>90</ele>
        <time>2019-08-12T14:42:28Z</time>
      </trkpt>
      <trkpt lat="49.13447" lon="2.19804">
        <ele>92</ele>
        <time>2019-08-12T14:44:34Z</time>
      </trkpt>
      <trkpt lat="49.13534" lon="2.19765">
        <ele>96</ele>
        <time>2019-08-12T14:46:35Z</time>
      </trkpt>
      <trkpt lat="49.13621" lon="2.19727">
        <ele>93</ele>
        <time>2019-08-12T14:48:36Z</time>
      </trkpt>
      <trkpt lat="49.13663" lon="2.19714">
        <ele>93</ele>
        <time>2019-08-12T14:49:33Z</time>
      </trkpt>
      <trkpt lat="49.13683" lon="2.19624">
        <ele>96</ele>
        <time>2019-08-12T14:50:56Z</time>
      </trkpt>
      <trkpt lat="49.13713" lon="2.19512">
        <ele>96</ele>
        <time>2019-08-12T14:52:42Z</time>
      </trkpt>
      <trkpt lat="49.13758" lon="2.19414">
        <ele>98</ele>
        <time>2019-08-12T14:54:26Z</time>
      </trkpt>
      <trkpt lat="49.13826" lon="2.19345">
        <ele>100</ele>
        <time>2019-08-12T14:56:15Z</time>
      </trkpt>
      <trkpt lat="49.13899" lon="2.19276">
        <ele>101</ele>
        <time>2019-08-12T14:58:10Z</time>
      </trkpt>
      <trkpt lat="49.13977" lon="2.19203">
        <ele>102</ele>
        <time>2019-08-12T15:00:12Z</time>
      </trkpt>
      <trkpt lat="49.14056" lon="2.1913">
        <ele>104</ele>
        <time>2019-08-12T15:02:15Z</time>
      </trkpt>
      <trkpt lat="49.14146" lon="2.19049">
        <ele>104</ele>
        <time>2019-08-12T15:04:34Z</time>
      </trkpt>
      <trkpt lat="49.14236" lon="2.18929">
        <ele>106</ele>
        <time>2019-08-12T15:07:14Z</time>
      </trkpt>
      <trkpt lat="49.14334" lon="2.18834">
        <ele>107</ele>
        <time>2019-08-12T15:09:49Z</time>
      </trkpt>
      <trkpt lat="49.14432" lon="2.1874">
        <ele>104</ele>
        <time>2019-08-12T15:12:23Z</time>
      </trkpt>
      <trkpt lat="49.14486" lon="2.18714">
        <ele>103</ele>
        <time>2019-08-12T15:13:38Z</time>
      </trkpt>
      <trkpt lat="49.14525" lon="2.18654">
        <ele>98</ele>
        <time>2019-08-12T15:14:52Z</time>
      </trkpt>
      <trkpt lat="49.14609" lon="2.18615">
        <ele>103</ele>
        <time>2019-08-12T15:16:49Z</time>
      </trkpt>
      <trkpt lat="49.1462" lon="2.18547">
        <ele>102</ele>
        <time>2019-08-12T15:17:51Z</time>
      </trkpt>
      <trkpt lat="49.14573" lon="2.18452">
        <ele>96</ele>
        <time>2019-08-12T15:19:35Z</time>
      </trkpt>
      <trkpt lat="49.14519" lon="2.18336">
        <ele>98</ele>
        <time>2019-08-12T15:21:39Z</time>
      </trkpt>
      <trkpt lat="49.14463" lon="2.18268">
        <ele>95</ele>
        <time>2019-08-12T15:23:14Z</time>
      </trkpt>
      <trkpt lat="49.14418" lon="2.18225">
        <ele>97</ele>
        <time>2019-08-12T15:24:25Z</time>
      </trkpt>
      <trkpt lat="49.14354" lon="2.18208">
        <ele>90</ele>
        <time>2019-08-12T15:25:52Z</time>
      </trkpt>
      <trkpt lat="49.14267" lon="2.18233">
        <ele>77</ele>
        <time>2019-08-12T15:27:50Z</time>
      </trkpt>
      <trkpt lat="49.14202" lon="2.18216">
        <ele>69</ele>
        <time>2019-08-12T15:29:18Z</time>
      </trkpt>
      <trkpt lat="49.14135" lon="2.18186">
        <ele>66</ele>
        <time>2019-08-12T15:30:51Z</time>
      </trkpt>
      <trkpt lat="49.14064" lon="2.18105">
        <ele>62</ele>
        <time>2019-08-12T15:32:49Z</time>
      </trkpt>
      <trkpt lat="49.13977" lon="2.18015">
        <ele>55</ele>
        <time>2019-08-12T15:35:10Z</time>
      </trkpt>
      <trkpt lat="49.13896" lon="2.1798">
        <ele>51</ele>
        <time>2019-08-12T15:37:02Z</time>
      </trkpt>
      <trkpt lat="49.13815" lon="2.17882">
        <ele>53</ele>
        <time>2019-08-12T15:39:20Z</time>
      </trkpt>
      <trkpt lat="49.13742" lon="2.17757">
        <ele>53</ele>
        <time>2019-08-12T15:41:46Z</time>
      </trkpt>
      <trkpt lat="49.13669" lon="2.17628">
        <ele>47</ele>
        <time>2019-08-12T15:44:15Z</time>
      </trkpt>
      <trkpt lat="49.13587" lon="2.17517">
        <ele>45</ele>
        <time>2019-08-12T15:46:41Z</time>
      </trkpt>
      <trkpt lat="49.13552" lon="2.1739">
        <ele>46</ele>
        <time>2019-08-12T15:48:41Z</time>
      </trkpt>
      <trkpt lat="49.13504" lon="2.17283">
        <ele>46</ele>
        <time>2019-08-12T15:50:35Z</time>
      </trkpt>
      <trkpt lat="49.1345" lon="2.17186">
        <ele>48</ele>
        <time>2019-08-12T15:52:26Z</time>
      </trkpt>
      <trkpt lat="49.1334" lon="2.171">
        <ele>47</ele>
        <time>2019-08-12T15:55:11Z</time>
      </trkpt>
      <trkpt lat="49.13304" lon="2.1695">
        <ele>39</ele>
        <time>2019-08-12T15:57:30Z</time>
      </trkpt>
      <trkpt lat="49.13226" lon="2.16957">
        <ele>40</ele>
        <time>2019-08-12T15:59:15Z</time>
      </trkpt>
      <trkpt lat="49.1318" lon="2.1689">
        <ele>39</ele>
        <time>2019-08-12T16:00:39Z</time>
      </trkpt>
      <trkpt lat="49.13132" lon="2.16849">
        <ele>39</ele>
        <time>2019-08-12T16:01:53Z</time>
      </trkpt>
      <trkpt lat="49.13058" lon="2.16822">
        <ele>39</ele>
        <time>2019-08-12T16:03:34Z</time>
      </trkpt>
      <trkpt lat="49.1302" lon="2.168">
        <ele>39</ele>
        <time>2019-08-12T16:04:28Z</time>
      </trkpt>
      <trkpt lat="49.12978" lon="2.16789">
        <ele>39</ele>
        <time>2019-08-12T16:05:25Z</time>
      </trkpt>
      <trkpt lat="49.12929" lon="2.16829">
        <ele>38</ele>
        <time>2019-08-12T16:06:39Z</time>
      </trkpt>
      <trkpt lat="49.12882" lon="2.16734">
        <ele>38</ele>
        <time>2019-08-12T16:08:23Z</time>
      </trkpt>
      <trkpt lat="49.12818" lon="2.16776">
        <ele>39</ele>
        <time>2019-08-12T16:09:56Z</time>
      </trkpt>
      <trkpt lat="49.12747" lon="2.16814">
        <ele>42</ele>
        <time>2019-08-12T16:11:37Z</time>
      </trkpt>
      <trkpt lat="49.12644" lon="2.16867">
        <ele>43</ele>
        <time>2019-08-12T16:14:02Z</time>
      </trkpt>
      <trkpt lat="49.12561" lon="2.16929">
        <ele>42</ele>
        <time>2019-08-12T16:16:05Z</time>
      </trkpt>
      <trkpt lat="49.12512" lon="2.17015">
        <ele>42</ele>
        <time>2019-08-12T16:17:45Z</time>
      </trkpt>
      <trkpt lat="49.12493" lon="2.17107">
        <ele>46</ele>
        <time>2019-08-12T16:19:09Z</time>
      </trkpt>
      <trkpt lat="49.12469" lon="2.17257">
        <ele>44</ele>
        <time>2019-08-12T16:21:24Z</time>
      </trkpt>
      <trkpt lat="49.12433" lon="2.17403">
        <ele>42</ele>
        <time>2019-08-12T16:23:40Z</time>
      </trkpt>
      <trkpt lat="49.12374" lon="2.17487">
        <ele>41</ele>
        <time>2019-08-12T16:25:28Z</time>
      </trkpt>
      <trkpt lat="49.12343" lon="2.1753">
        <ele>39</ele>
        <time>2019-08-12T16:26:24Z</time>
      </trkpt>
      <trkpt lat="49.12295" lon="2.17568">
        <ele>41</ele>
        <time>2019-08-12T16:27:36Z</time>
      </trkpt>
      <trkpt lat="49.12245" lon="2.1763">
        <ele>46</ele>
        <time>2019-08-12T16:29:02Z</time>
      </trkpt>
      <trkpt lat="49.12204" lon="2.17714">
        <ele>45</ele>
        <time>2019-08-12T16:30:33Z</time>
      </trkpt>
      <trkpt lat="49.12165" lon="2.17811">
        <ele>46</ele>
        <time>2019-08-12T16:32:13Z</time>
      </trkpt>
      <trkpt lat="49.1208" lon="2.17907">
        <ele>46</ele>
        <time>2019-08-12T16:34:34Z</time>
      </trkpt>
      <trkpt lat="49.11996" lon="2.17922">
        <ele>47</ele>
        <time>2019-08-12T16:36:26Z</time>
      </trkpt>
      <trkpt lat="49.11923" lon="2.17907">
        <ele>47</ele>
        <time>2019-08-12T16:38:05Z</time>
      </trkpt>
      <trkpt lat="49.11864" lon="2.17841">
        <ele>44</ele>
        <time>2019-08-12T16:39:42Z</time>
      </trkpt>
      <trkpt lat="49.11784" lon="2.1777">
        <ele>45</ele>
        <time>2019-08-12T16:41:46Z</time>
      </trkpt>
      <trkpt lat="49.11703" lon="2.17718">
        <ele>44</ele>
        <time>2019-08-12T16:43:43Z</time>
      </trkpt>
      <trkpt lat="49.11634" lon="2.17712">
        <ele>42</ele>
        <time>2019-08-12T16:45:15Z</time>
      </trkpt>
      <trkpt lat="49.11524" lon="2.17678">
        <ele>41</ele>
        <time>2019-08-12T16:47:45Z</time>
      </trkpt>
      <trkpt lat="49.11419" lon="2.17648">
        <ele>45</ele>
        <time>2019-08-12T16:50:08Z</time>
      </trkpt>
      <trkpt lat="49.11309" lon="2.17645">
        <ele>46</ele>
        <time>2019-08-12T16:52:34Z</time>
      </trkpt>
      <trkpt lat="49.11196" lon="2.17645">
        <ele>42</ele>
        <time>2019-08-12T16:55:05Z</time>
      </trkpt>
      <trkpt lat="49.11075" lon="2.1765">
        <ele>44</ele>
        <time>2019-08-12T16:57:47Z</time>
      </trkpt>
      <trkpt lat="49.10992" lon="2.17684">
        <ele>44</ele>
        <time>2019-08-12T16:59:41Z</time>
      </trkpt>
      <trkpt lat="49.10909" lon="2.17727">
        <ele>51</ele>
        <time>2019-08-12T17:01:38Z</time>
      </trkpt>
      <trkpt lat="49.10846" lon="2.17817">
        <ele>42</ele>
        <time>2019-08-12T17:03:33Z</time>
      </trkpt>
      <trkpt lat="49.1078" lon="2.17927">
        <ele>40</ele>
        <time>2019-08-12T17:05:44Z</time>
      </trkpt>
      <trkpt lat="49.10714" lon="2.18036">
        <ele>38</ele>
        <time>2019-08-12T17:07:53Z</time>
      </trkpt>
      <trkpt lat="49.10638" lon="2.18167">
        <ele>34</ele>
        <time>2019-08-12T17:10:26Z</time>
      </trkpt>
      <trkpt lat="49.106" lon="2.18115">
        <ele>38</ele>
        <time>2019-08-12T17:11:34Z</time>
      </trkpt>
      <trkpt lat="49.10506" lon="2.18075">
        <ele>58</ele>
        <time>2019-08-12T17:13:45Z</time>
      </trkpt>
      <trkpt lat="49.10471" lon="2.18124">
        <ele>59</ele>
        <time>2019-08-12T17:14:48Z</time>
      </trkpt>
      <trkpt lat="49.10423" lon="2.18158">
        <ele>56</ele>
        <time>2019-08-12T17:15:59Z</time>
      </trkpt>
      <trkpt lat="49.10377" lon="2.18141">
        <ele>57</ele>
        <time>2019-08-12T17:17:02Z</time>
      </trkpt>
      <trkpt lat="49.10349" lon="2.18105">
        <ele>60</ele>
        <time>2019-08-12T17:17:51Z</time>
      </trkpt>
      <trkpt lat="49.10358" lon="2.18032">
        <ele>74</ele>
        <time>2019-08-12T17:18:56Z</time>
      </trkpt>
      <trkpt lat="49.10375" lon="2.17929">
        <ele>84</ele>
        <time>2019-08-12T17:20:28Z</time>
      </trkpt>
      <trkpt lat="49.10401" lon="2.17826">
        <ele>90</ele>
        <time>2019-08-12T17:22:05Z</time>
      </trkpt>
      <trkpt lat="49.10401" lon="2.17742">
        <ele>90</ele>
        <time>2019-08-12T17:23:18Z</time>
      </trkpt>
      <trkpt lat="49.10374" lon="2.17626">
        <ele>92</ele>
        <time>2019-08-12T17:25:06Z</time>
      </trkpt>
      <trkpt lat="49.10336" lon="2.17525">
        <ele>95</ele>
        <time>2019-08-12T17:26:48Z</time>
      </trkpt>
      <trkpt lat="49.10302" lon="2.1739">
        <ele>97</ele>
        <time>2019-08-12T17:28:54Z</time>
      </trkpt>
      <trkpt lat="49.10266" lon="2.17244">
        <ele>99</ele>
        <time>2019-08-12T17:31:10Z</time>
      </trkpt>
      <trkpt lat="49.10224" lon="2.17141">
        <ele>100</ele>
        <time>2019-08-12T17:32:56Z</time>
      </trkpt>
      <trkpt lat="49.10117" lon="2.16912">
        <ele>100</ele>
        <time>2019-08-12T17:37:02Z</time>
      </trkpt>
      <trkpt lat="49.10016" lon="2.16719">
        <ele>96</ele>
        <time>2019-08-12T17:40:38Z</time>
      </trkpt>
      <trkpt lat="49.09896" lon="2.16422">
        <ele>90</ele>
        <time>2019-08-12T17:45:43Z</time>
      </trkpt>
      <trkpt lat="49.09839" lon="2.16328">
        <ele>87</ele>
        <time>2019-08-12T17:47:35Z</time>
      </trkpt>
      <trkpt lat="49.09719" lon="2.16105">
        <ele>85</ele>
        <time>2019-08-12T17:51:47Z</time>
      </trkpt>
      <trkpt lat="49.09666" lon="2.15989">
        <ele>80</ele>
        <time>2019-08-12T17:53:51Z</time>
      </trkpt>
      <trkpt lat="49.09569" lon="2.1601">
        <ele>79</ele>
        <time>2019-08-12T17:56:01Z</time>
      </trkpt>
      <trkpt lat="49.0944" lon="2.16006">
        <ele>78</ele>
        <time>2019-08-12T17:58:53Z</time>
      </trkpt>
      <trkpt lat="49.0931" lon="2.16021">
        <ele>75</ele>
        <time>2019-08-12T18:01:47Z</time>
      </trkpt>
      <trkpt lat="49.09268" lon="2.16055">
        <ele>77</ele>
        <time>2019-08-12T18:02:51Z</time>
      </trkpt>
      <trkpt lat="49.09201" lon="2.16062">
        <ele>75</ele>
        <time>2019-08-12T18:04:21Z</time>
      </trkpt>
      <trkpt lat="49.09126" lon="2.16068">
        <ele>72</ele>
        <time>2019-08-12T18:06:01Z</time>
      </trkpt>
      <trkpt lat="49.09057" lon="2.16118">
        <ele>73</ele>
        <time>2019-08-12T18:07:43Z</time>
      </trkpt>
      <trkpt lat="49.08977" lon="2.16167">
        <ele>74</ele>
        <time>2019-08-12T18:09:38Z</time>
      </trkpt>
      <trkpt lat="49.08896" lon="2.16229">
        <ele>73</ele>
        <time>2019-08-12T18:11:39Z</time>
      </trkpt>
      <trkpt lat="49.08827" lon="2.16302">
        <ele>73</ele>
        <time>2019-08-12T18:13:31Z</time>
      </trkpt>
      <trkpt lat="49.08772" lon="2.16356">
        <ele>73</ele>
        <time>2019-08-12T18:14:58Z</time>
      </trkpt>
      <trkpt lat="49.08715" lon="2.16401">
        <ele>69</ele>
        <time>2019-08-12T18:16:24Z</time>
      </trkpt>
      <trkpt lat="49.08674" lon="2.16465">
        <ele>69</ele>
        <time>2019-08-12T18:17:42Z</time>
      </trkpt>
      <trkpt lat="49.08639" lon="2.16564">
        <ele>68</ele>
        <time>2019-08-12T18:19:20Z</time>
      </trkpt>
      <trkpt lat="49.08615" lon="2.16669">
        <ele>69</ele>
        <time>2019-08-12T18:20:57Z</time>
      </trkpt>
      <trkpt lat="49.08591" lon="2.16774">
        <ele>69</ele>
        <time>2019-08-12T18:22:34Z</time>
      </trkpt>
      <trkpt lat="49.08561" lon="2.16843">
        <ele>70</ele>
        <time>2019-08-12T18:23:47Z</time>
      </trkpt>
      <trkpt lat="49.08516" lon="2.16879">
        <ele>70</ele>
        <time>2019-08-12T18:24:55Z</time>
      </trkpt>
      <trkpt lat="49.08466" lon="2.16879">
        <ele>66</ele>
        <time>2019-08-12T18:26:01Z</time>
      </trkpt>
      <trkpt lat="49.0841" lon="2.16869">
        <ele>63</ele>
        <time>2019-08-12T18:27:17Z</time>
      </trkpt>
      <trkpt lat="49.08332" lon="2.16849">
        <ele>60</ele>
        <time>2019-08-12T18:29:02Z</time>
      </trkpt>
      <trkpt lat="49.08277" lon="2.16822">
        <ele>56</ele>
        <time>2019-08-12T18:30:19Z</time>
      </trkpt>
      <trkpt lat="49.08241" lon="2.16809">
        <ele>54</ele>
        <time>2019-08-12T18:31:09Z</time>
      </trkpt>
      <trkpt lat="49.08225" lon="2.16849">
        <ele>53</ele>
        <time>2019-08-12T18:31:50Z</time>
      </trkpt>
      <trkpt lat="49.0823" lon="2.16907">
        <ele>56</ele>
        <time>2019-08-12T18:32:41Z</time>
      </trkpt>
      <trkpt lat="49.08188" lon="2.16946">
        <ele>56</ele>
        <time>2019-08-12T18:33:46Z</time>
      </trkpt>
      <trkpt lat="49.08157" lon="2.16991">
        <ele>53</ele>
        <time>2019-08-12T18:34:43Z</time>
      </trkpt>
      <trkpt lat="49.08103" lon="2.1703">
        <ele>51</ele>
        <time>2019-08-12T18:36:03Z</time>
      </trkpt>
      <trkpt lat="49.08047" lon="2.1707">
        <ele>48</ele>
        <time>2019-08-12T18:37:26Z</time>
      </trkpt>
      <trkpt lat="49.07999" lon="2.17115">
        <ele>45</ele>
        <time>2019-08-12T18:38:41Z</time>
      </trkpt>
      <trkpt lat="49.07954" lon="2.17171">
        <ele>45</ele>
        <time>2019-08-12T18:39:58Z</time>
      </trkpt>
      <trkpt lat="49.07919" lon="2.17203">
        <ele>44</ele>
        <time>2019-08-12T18:40:53Z</time>
      </trkpt>
      <trkpt lat="49.07987" lon="2.17244">
        <ele>48</ele>
        <time>2019-08-12T18:42:30Z</time>
      </trkpt>
      <trkpt lat="49.08064" lon="2.17287">
        <ele>57</ele>
        <time>2019-08-12T18:44:20Z</time>
      </trkpt>
      <trkpt lat="49.08136" lon="2.17347">
        <ele>61</ele>
        <time>2019-08-12T18:46:09Z</time>
      </trkpt>
      <trkpt lat="49.08185" lon="2.17401">
        <ele>62</ele>
        <time>2019-08-12T18:47:30Z</time>
      </trkpt>
      <trkpt lat="49.08157" lon="2.17429">
        <ele>62</ele>
        <time>2019-08-12T18:48:14Z</time>
      </trkpt>
      <trkpt lat="49.08091" lon="2.17427">
        <ele>62</ele>
        <time>2019-08-12T18:49:43Z</time>
      </trkpt>
      <trkpt lat="49.08034" lon="2.17422">
        <ele>63</ele>
        <time>2019-08-12T18:50:59Z</time>
      </trkpt>
      <trkpt lat="49.07974" lon="2.1745">
        <ele>65</ele>
        <time>2019-08-12T18:52:22Z</time>
      </trkpt>
      <trkpt lat="49.07904" lon="2.17478">
        <ele>67</ele>
        <time>2019-08-12T18:53:59Z</time>
      </trkpt>
      <trkpt lat="49.07812" lon="2.17506">
        <ele>69</ele>
        <time>2019-08-12T18:56:04Z</time>
      </trkpt>
      <trkpt lat="49.07745" lon="2.17525">
        <ele>67</ele>
        <time>2019-08-12T18:57:35Z</time>
      </trkpt>
      <trkpt lat="49.0768" lon="2.17519">
        <ele>67</ele>
        <time>2019-08-12T18:59:02Z</time>
      </trkpt>
      <trkpt lat="49.07603" lon="2.17519">
        <ele>65</ele>
        <time>2019-08-12T19:00:45Z</time>
      </trkpt>
      <trkpt lat="49.0752" lon="2.17551">
        <ele>63</ele>
        <time>2019-08-12T19:02:39Z</time>
      </trkpt>
      <trkpt lat="49.07443" lon="2.17583">
        <ele>61</ele>
        <time>2019-08-12T19:04:26Z</time>
      </trkpt>
      <trkpt lat="49.07471" lon="2.1768">
        <ele>61</ele>
        <time>2019-08-12T19:05:58Z</time>
      </trkpt>
      <trkpt lat="49.07509" lon="2.17813">
        <ele>62</ele>
        <time>2019-08-12T19:08:05Z</time>
      </trkpt>
      <trkpt lat="49.07467" lon="2.17824">
        <ele>61</ele>
        <time>2019-08-12T19:09:02Z</time>
      </trkpt>
      <trkpt lat="49.0743" lon="2.1783">
        <ele>60</ele>
        <time>2019-08-12T19:09:52Z</time>
      </trkpt>
      <trkpt lat="49.07365" lon="2.17763">
        <ele>58</ele>
        <time>2019-08-12T19:11:36Z</time>
      </trkpt>
      <trkpt lat="49.07303" lon="2.17727">
        <ele>54</ele>
        <time>2019-08-12T19:13:05Z</time>
      </trkpt>
      <trkpt lat="49.07247" lon="2.17695">
        <ele>48</ele>
        <time>2019-08-12T19:14:25Z</time>
      </trkpt>
      <trkpt lat="49.07239" lon="2.1767">
        <ele>50</ele>
        <time>2019-08-12T19:14:49Z</time>
      </trkpt>
      <trkpt lat="49.07222" lon="2.17678">
        <ele>47</ele>
        <time>2019-08-12T19:15:13Z</time>
      </trkpt>
      <trkpt lat="49.07209" lon="2.17691">
        <ele>46</ele>
        <time>2019-08-12T19:15:33Z</time>
      </trkpt>
      <trkpt lat="49.072" lon="2.17702">
        <ele>45</ele>
        <time>2019-08-12T19:15:49Z</time>
      </trkpt>
      <trkpt lat="49.07187" lon="2.17672">
        <ele>44</ele>
        <time>2019-08-12T19:16:20Z</time>
      </trkpt>
      <trkpt lat="49.07166" lon="2.17666">
        <ele>41</ele>
        <time>2019-08-12T19:16:49Z</time>
      </trkpt>
      <trkpt lat="49.07154" lon="2.1767">
        <ele>38</ele>
        <time>2019-08-12T19:17:05Z</time>
      </trkpt>
      <trkpt lat="49.07142" lon="2.17685">
        <ele>36</ele>
        <time>2019-08-12T19:17:26Z</time>
      </trkpt>
      <trkpt lat="49.07128" lon="2.17702">
        <ele>34</ele>
        <time>2019-08-12T19:17:50Z</time>
      </trkpt>
      <trkpt lat="49.07115" lon="2.1772">
        <ele>33</ele>
        <time>2019-08-12T19:18:13Z</time>
      </trkpt>
      <trkpt lat="49.07096" lon="2.1774">
        <ele>31</ele>
        <time>2019-08-12T19:18:44Z</time>
      </trkpt>
      <trkpt lat="49.07079" lon="2.17763">
        <ele>27</ele>
        <time>2019-08-12T19:19:14Z</time>
      </trkpt>
      <trkpt lat="49.07058" lon="2.17791">
        <ele>26</ele>
        <time>2019-08-12T19:19:51Z</time>
      </trkpt>
      <trkpt lat="49.07056" lon="2.17768">
        <ele>27</ele>
        <time>2019-08-12T19:20:12Z</time>
      </trkpt>
      <trkpt lat="49.07062" lon="2.17738">
        <ele>28</ele>
        <time>2019-08-12T19:20:39Z</time>
      </trkpt>
      <trkpt lat="49.07066" lon="2.17714">
        <ele>28</ele>
        <time>2019-08-12T19:21:01Z</time>
      </trkpt>
      <trkpt lat="49.07068" lon="2.1767">
        <ele>28</ele>
        <time>2019-08-12T19:21:39Z</time>
      </trkpt>
      <trkpt lat="49.0705" lon="2.1762">
        <ele>28</ele>
        <time>2019-08-12T19:22:29Z</time>
      </trkpt>
      <trkpt lat="49.07038" lon="2.17567">
        <ele>28</ele>
        <time>2019-08-12T19:23:18Z</time>
      </trkpt>
    </trkseg>
  </trk>
</gpx>